Terminal Aerodrome Forecast
Issued by NWS Albany, NY

Home | Current Version | Previous Version | Text Only | Print | Product List | Glossary On
Versions: 1 2 3 4 5 6 7 8 9 10 11 12 13 14 15 16 17 18 19 20 21 22 23 24 25
600
FTUS41 KALY 291136
TAFPOU
TAF
KPOU 291136Z 2912/3012 36006KT P6SM SCT015 OVC035
      TEMPO 2912/2914 BKN015 OVC035
     FM291600 34010G18KT P6SM BKN035
     FM291800 33013G23KT P6SM SCT035
     FM300000 34006KT P6SM SCT035=

USA.gov is the U.S. government's official web portal to all federal, state and local government web resources and services.